Time,TemperatureF,DewpointF,PressureIn,WindDirection,WindDirectionDegrees,WindSpeedMPH,WindSpeedGustMPH,Humidity,HourlyPrecipIn,Conditions,Clouds,dailyrainin,SoftwareType,DateUTC
2013-06-24 00:12:00,79.3,71.0,29.88,SSE,168,0.0,8.0,75,0.00,,,0.00,weatherlink.com 1.10,2013-06-24 05:12:00,
2013-06-24 00:27:00,78.9,71.0,29.88,SSE,150,1.0,9.0,76,0.00,,,0.00,weatherlink.com 1.10,2013-06-24 05:27:00,
2013-06-24 00:42:00,78.5,71.0,29.88,South,178,0.0,4.0,77,0.00,,,0.00,weatherlink.com 1.10,2013-06-24 05:42:00,
2013-06-24 00:57:00,78.1,71.0,29.88,SSE,151,0.0,5.0,78,0.00,,,0.00,weatherlink.com 1.10,2013-06-24 05:57:00,
2013-06-24 01:12:00,77.7,71.0,29.89,South,176,0.0,3.0,79,0.00,,,0.00,weatherlink.com 1.10,2013-06-24 06:12:00,
2013-06-24 01:27:00,77.3,70.0,29.89,SE,126,0.0,3.0,79,0.00,,,0.00,weatherlink.com 1.10,2013-06-24 06:27:00,
2013-06-24 01:42:00,76.9,70.0,29.89,South,186,0.0,2.0,80,0.00,,,0.00,weatherlink.com 1.10,2013-06-24 06:42:00,
2013-06-24 01:57:00,76.6,70.0,29.89,South,175,0.0,2.0,81,0.00,,,0.00,weatherlink.com 1.10,2013-06-24 06:57:00,
2013-06-24 02:12:00,76.4,71.0,29.90,ESE,117,0.0,3.0,82,0.00,,,0.00,weatherlink.com 1.10,2013-06-24 07:12:00,
2013-06-24 02:27:00,75.7,70.0,29.91,SE,142,0.0,0.0,83,0.00,,,0.00,weatherlink.com 1.10,2013-06-24 07:27:00,
2013-06-24 02:42:00,75.5,70.0,29.91,SE,130,0.0,1.0,83,0.00,,,0.00,weatherlink.com 1.10,2013-06-24 07:42:00,
2013-06-24 02:57:00,75.6,70.0,29.90,ESE,114,3.0,5.0,83,0.00,,,0.00,weatherlink.com 1.10,2013-06-24 07:57:00,
2013-06-24 03:12:00,75.7,70.0,29.90,SE,131,0.0,7.0,83,0.00,,,0.00,weatherlink.com 1.10,2013-06-24 08:12:00,
2013-06-24 03:27:00,75.9,70.0,29.91,SSW,202,0.0,5.0,82,0.00,,,0.00,weatherlink.com 1.10,2013-06-24 08:27:00,
2013-06-24 03:42:00,76.0,70.0,29.91,SSE,157,4.0,5.0,82,0.00,,,0.00,weatherlink.com 1.10,2013-06-24 08:42:00,
2013-06-24 04:27:00,75.8,70.0,29.91,SSE,153,0.0,6.0,82,0.00,,,0.00,weatherlink.com 1.10,2013-06-24 09:27:00,
2013-06-24 04:42:00,75.7,70.0,29.91,SE,143,0.0,7.0,82,0.00,,,0.00,weatherlink.com 1.10,2013-06-24 09:42:00,
2013-06-24 05:12:00,75.4,70.0,29.91,SE,146,0.0,4.0,83,0.00,,,0.00,weatherlink.com 1.10,2013-06-24 10:12:00,
2013-06-24 05:27:00,75.3,70.0,29.91,SE,140,2.0,6.0,83,0.00,,,0.00,weatherlink.com 1.10,2013-06-24 10:27:00,
2013-06-24 05:42:00,75.3,70.0,29.91,South,179,0.0,9.0,83,0.00,,,0.00,weatherlink.com 1.10,2013-06-24 10:42:00,
2013-06-24 05:57:00,75.2,70.0,29.91,South,183,0.0,10.0,83,0.00,,,0.00,weatherlink.com 1.10,2013-06-24 10:57:00,
2013-06-24 06:43:00,74.9,70.0,29.92,SSE,153,1.0,10.0,85,0.00,,,0.00,weatherlink.com 1.10,2013-06-24 11:43:00,
2013-06-24 06:58:00,75.3,70.0,29.93,SSE,154,2.0,9.0,84,0.00,,,0.00,weatherlink.com 1.10,2013-06-24 11:58:00,
2013-06-24 07:13:00,75.7,71.0,29.93,SSE,152,0.0,7.0,84,0.00,,,0.00,weatherlink.com 1.10,2013-06-24 12:13:00,
2013-06-24 07:43:00,76.5,71.0,29.94,SSE,150,0.0,5.0,84,0.00,,,0.00,weatherlink.com 1.10,2013-06-24 12:43:00,
2013-06-24 07:58:00,77.2,72.0,29.94,SSW,205,5.0,9.0,83,0.00,,,0.00,weatherlink.com 1.10,2013-06-24 12:58:00,
2013-06-24 08:13:00,77.8,72.0,29.94,SSE,166,0.0,9.0,82,0.00,,,0.00,weatherlink.com 1.10,2013-06-24 13:13:00,
2013-06-24 08:28:00,78.3,72.0,29.95,South,188,9.0,11.0,81,0.00,,,0.00,weatherlink.com 1.10,2013-06-24 13:28:00,
2013-06-24 08:43:00,79.2,72.0,29.95,South,186,7.0,15.0,79,0.00,,,0.00,weatherlink.com 1.10,2013-06-24 13:43:00,
2013-06-24 08:58:00,80.0,72.0,29.95,South,173,2.0,13.0,76,0.00,,,0.00,weatherlink.com 1.10,2013-06-24 13:58:00,
2013-06-24 09:13:00,80.5,72.0,29.95,SSE,154,11.0,17.0,76,0.00,,,0.00,weatherlink.com 1.10,2013-06-24 14:13:00,
2013-06-24 09:28:00,81.4,72.0,29.95,SSW,207,2.0,16.0,74,0.00,,,0.00,weatherlink.com 1.10,2013-06-24 14:28:00,
2013-06-24 09:43:00,82.3,72.0,29.95,SSW,213,2.0,15.0,70,0.00,,,0.00,weatherlink.com 1.10,2013-06-24 14:43:00,
2013-06-24 09:58:00,83.0,72.0,29.95,South,189,3.0,11.0,69,0.00,,,0.00,weatherlink.com 1.10,2013-06-24 14:58:00,
2013-06-24 10:13:00,83.4,72.0,29.95,SE,133,2.0,17.0,69,0.00,,,0.00,weatherlink.com 1.10,2013-06-24 15:13:00,
2013-06-24 10:28:00,84.0,71.0,29.95,SSE,166,2.0,12.0,66,0.00,,,0.00,weatherlink.com 1.10,2013-06-24 15:28:00,
2013-06-24 10:43:00,84.3,71.0,29.94,South,171,3.0,16.0,65,0.00,,,0.00,weatherlink.com 1.10,2013-06-24 15:43:00,
2013-06-24 10:58:00,85.0,71.0,29.94,South,190,2.0,13.0,64,0.00,,,0.00,weatherlink.com 1.10,2013-06-24 15:58:00,
2013-06-24 11:13:00,85.5,71.0,29.94,SSE,156,8.0,16.0,63,0.00,,,0.00,weatherlink.com 1.10,2013-06-24 16:13:00,
2013-06-24 11:28:00,86.2,70.0,29.94,South,184,5.0,17.0,59,0.00,,,0.00,weatherlink.com 1.10,2013-06-24 16:28:00,
2013-06-24 11:43:00,86.5,71.0,29.94,SW,219,10.0,16.0,61,0.00,,,0.00,weatherlink.com 1.10,2013-06-24 16:43:00,
2013-06-24 11:58:00,86.6,71.0,29.94,SSE,159,4.0,14.0,60,0.00,,,0.00,weatherlink.com 1.10,2013-06-24 16:58:00,
2013-06-24 12:13:00,86.5,71.0,29.94,SSE,165,2.0,19.0,60,0.00,,,0.00,weatherlink.com 1.10,2013-06-24 17:13:00,
2013-06-24 13:13:00,88.4,71.0,29.92,SSE,148,2.0,13.0,57,0.00,,,0.00,weatherlink.com 1.10,2013-06-24 18:13:00,
2013-06-24 13:28:00,88.2,71.0,29.92,South,186,7.0,15.0,57,0.00,,,0.00,weatherlink.com 1.10,2013-06-24 18:28:00,
2013-06-24 13:58:00,88.4,71.0,29.91,SE,130,1.0,18.0,57,0.00,,,0.00,weatherlink.com 1.10,2013-06-24 18:58:00,
2013-06-24 14:13:00,89.1,72.0,29.90,South,187,2.0,14.0,57,0.00,,,0.00,weatherlink.com 1.10,2013-06-24 19:13:00,
2013-06-24 14:28:00,88.8,70.0,29.90,South,179,8.0,16.0,54,0.00,,,0.00,weatherlink.com 1.10,2013-06-24 19:28:00,
2013-06-24 15:28:00,89.6,70.0,29.88,South,189,3.0,19.0,53,0.00,,,0.00,weatherlink.com 1.10,2013-06-24 20:28:00,
2013-06-24 15:43:00,89.1,70.0,29.88,SE,142,2.0,11.0,54,0.00,,,0.00,weatherlink.com 1.10,2013-06-24 20:43:00,
2013-06-24 15:58:00,90.1,71.0,29.88,South,184,7.0,13.0,54,0.00,,,0.00,weatherlink.com 1.10,2013-06-24 20:58:00,
2013-06-24 16:14:00,90.0,71.0,29.87,South,187,0.0,15.0,54,0.00,,,0.00,weatherlink.com 1.10,2013-06-24 21:14:00,
2013-06-24 16:44:00,89.7,70.0,29.86,SSW,193,3.0,16.0,53,0.00,,,0.00,weatherlink.com 1.10,2013-06-24 21:44:00,
2013-06-24 16:59:00,89.6,71.0,29.86,SSW,194,7.0,13.0,55,0.00,,,0.00,weatherlink.com 1.10,2013-06-24 21:59:00,
2013-06-24 17:14:00,89.4,72.0,29.85,SSE,161,2.0,11.0,57,0.00,,,0.00,weatherlink.com 1.10,2013-06-24 22:14:00,
2013-06-24 17:29:00,89.4,72.0,29.85,South,175,2.0,13.0,56,0.00,,,0.00,weatherlink.com 1.10,2013-06-24 22:29:00,
2013-06-24 17:44:00,88.6,71.0,29.86,SSE,153,5.0,14.0,56,0.00,,,0.00,weatherlink.com 1.10,2013-06-24 22:44:00,
2013-06-24 17:59:00,88.4,71.0,29.85,South,185,5.0,16.0,57,0.00,,,0.00,weatherlink.com 1.10,2013-06-24 22:59:00,
2013-06-24 18:14:00,88.1,71.0,29.85,SSW,200,4.0,14.0,57,0.00,,,0.00,weatherlink.com 1.10,2013-06-24 23:14:00,
2013-06-24 18:29:00,87.7,71.0,29.85,SSW,198,2.0,14.0,58,0.00,,,0.00,weatherlink.com 1.10,2013-06-24 23:29:00,
2013-06-24 18:44:00,87.4,71.0,29.84,SSE,148,2.0,9.0,59,0.00,,,0.00,weatherlink.com 1.10,2013-06-24 23:44:00,
2013-06-24 18:59:00,86.6,71.0,29.84,SSE,150,3.0,10.0,59,0.00,,,0.00,weatherlink.com 1.10,2013-06-24 23:59:00,
2013-06-24 19:29:00,86.2,72.0,29.85,South,190,0.0,8.0,62,0.00,,,0.00,weatherlink.com 1.10,2013-06-25 00:29:00,
2013-06-24 19:44:00,85.9,72.0,29.85,South,181,0.0,10.0,63,0.00,,,0.00,weatherlink.com 1.10,2013-06-25 00:44:00,
2013-06-24 19:59:00,85.3,72.0,29.84,South,171,0.0,10.0,64,0.00,,,0.00,weatherlink.com 1.10,2013-06-25 00:59:00,
2013-06-24 20:14:00,84.7,71.0,29.84,SE,141,0.0,9.0,64,0.00,,,0.00,weatherlink.com 1.10,2013-06-25 01:14:00,
2013-06-24 20:29:00,84.1,71.0,29.83,SE,125,7.0,14.0,65,0.00,,,0.00,weatherlink.com 1.10,2013-06-25 01:29:00,
2013-06-24 20:44:00,83.8,71.0,29.84,SSE,147,0.0,11.0,65,0.00,,,0.00,weatherlink.com 1.10,2013-06-25 01:44:00,
2013-06-24 20:59:00,83.4,71.0,29.84,SSW,202,0.0,7.0,66,0.00,,,0.00,weatherlink.com 1.10,2013-06-25 01:59:00,
2013-06-24 21:14:00,82.9,71.0,29.84,SE,138,0.0,9.0,67,0.00,,,0.00,weatherlink.com 1.10,2013-06-25 02:14:00,
2013-06-24 21:29:00,82.4,71.0,29.84,SE,132,0.0,8.0,68,0.00,,,0.00,weatherlink.com 1.10,2013-06-25 02:29:00,
2013-06-24 21:44:00,82.2,71.0,29.85,SSE,151,0.0,14.0,69,0.00,,,0.00,weatherlink.com 1.10,2013-06-25 02:44:00,
2013-06-24 21:59:00,81.9,71.0,29.86,South,178,1.0,13.0,69,0.00,,,0.00,weatherlink.com 1.10,2013-06-25 02:59:00,
2013-06-24 22:14:00,81.9,71.0,29.86,SE,142,7.0,9.0,69,0.00,,,0.00,weatherlink.com 1.10,2013-06-25 03:14:00,
2013-06-24 22:29:00,81.5,71.0,29.88,SSE,159,1.0,8.0,70,0.00,,,0.00,weatherlink.com 1.10,2013-06-25 03:29:00,
2013-06-24 22:44:00,81.3,71.0,29.88,SSE,155,0.0,6.0,70,0.00,,,0.00,weatherlink.com 1.10,2013-06-25 03:44:00,
2013-06-24 22:59:00,81.0,71.0,29.88,South,178,0.0,3.0,71,0.00,,,0.00,weatherlink.com 1.10,2013-06-25 03:59:00,
2013-06-24 23:14:00,80.7,71.0,29.88,SSE,162,4.0,8.0,71,0.00,,,0.00,weatherlink.com 1.10,2013-06-25 04:14:00,
2013-06-24 23:29:00,80.6,70.0,29.87,SSE,155,0.0,10.0,71,0.00,,,0.00,weatherlink.com 1.10,2013-06-25 04:29:00,
2013-06-24 23:44:00,80.4,71.0,29.87,SE,130,0.0,11.0,72,0.00,,,0.00,weatherlink.com 1.10,2013-06-25 04:44:00,
2013-06-24 23:59:00,80.3,71.0,29.87,SSE,147,1.0,12.0,72,0.00,,,0.00,weatherlink.com 1.10,2013-06-25 04:59:00,